sensor_id;sensor_type;location;lat;lon;timestamp;pressure;altitude;pressure_sealevel;temperature;humidity
52993;BME280;38875;52.216;21.040;2022-08-27T00:01:33;149677.25;;;19.12;100.00
52993;BME280;38875;52.216;21.040;2022-08-27T00:03:59;149660.59;;;19.06;100.00
52993;BME280;38875;52.216;21.040;2022-08-27T00:06:25;149654.22;;;19.03;100.00
52993;BME280;38875;52.216;21.040;2022-08-27T00:08:52;149669.59;;;19.09;100.00
52993;BME280;38875;52.216;21.040;2022-08-27T00:11:19;149655.50;;;19.04;100.00
52993;BME280;38875;52.216;21.040;2022-08-27T00:13:45;149631.22;;;18.94;100.00
52993;BME280;38875;52.216;21.040;2022-08-27T00:16:12;149629.94;;;18.94;100.00
52993;BME280;38875;52.216;21.040;2022-08-27T00:18:39;149617.16;;;18.88;100.00
52993;BME280;38875;52.216;21.040;2022-08-27T00:21:05;149604.38;;;18.83;100.00
52993;BME280;38875;52.216;21.040;2022-08-27T00:23:31;149603.09;;;18.83;100.00
52993;BME280;38875;52.216;21.040;2022-08-27T00:25:57;149605.66;;;18.84;100.00
52993;BME280;38875;52.216;21.040;2022-08-27T00:28:25;149600.53;;;18.82;100.00
52993;BME280;38875;52.216;21.040;2022-08-27T00:30:52;149605.66;;;18.84;100.00
52993;BME280;38875;52.216;21.040;2022-08-27T00:33:18;149606.94;;;18.84;100.00
52993;BME280;38875;52.216;21.040;2022-08-27T00:35:43;149582.59;;;18.75;100.00
52993;BME280;38875;52.216;21.040;2022-08-27T00:38:09;149564.72;;;18.68;100.00
52993;BME280;38875;52.216;21.040;2022-08-27T00:40:35;149577.50;;;18.73;100.00
52993;BME280;38875;52.216;21.040;2022-08-27T00:43:00;149580.03;;;18.74;100.00
52993;BME280;38875;52.216;21.040;2022-08-27T00:45:35;149564.72;;;18.68;100.00
52993;BME280;38875;52.216;21.040;2022-08-27T00:48:01;149572.38;;;18.71;100.00
52993;BME280;38875;52.216;21.040;2022-08-27T00:50:39;149581.31;;;18.74;100.00
52993;BME280;38875;52.216;21.040;2022-08-27T00:53:12;149573.66;;;18.71;100.00
52993;BME280;38875;52.216;21.040;2022-08-27T00:55:48;149580.03;;;18.74;100.00
52993;BME280;38875;52.216;21.040;2022-08-27T00:58:39;149603.09;;;18.83;100.00
52993;BME280;38875;52.216;21.040;2022-08-27T01:01:08;149603.09;;;18.83;100.00
52993;BME280;38875;52.216;21.040;2022-08-27T01:03:34;149626.09;;;18.92;100.00
52993;BME280;38875;52.216;21.040;2022-08-27T01:06:01;149613.31;;;18.87;100.00
52993;BME280;38875;52.216;21.040;2022-08-27T01:08:32;149603.09;;;18.83;100.00
52993;BME280;38875;52.216;21.040;2022-08-27T01:10:59;149601.81;;;18.82;100.00
52993;BME280;38875;52.216;21.040;2022-08-27T01:13:28;149612.03;;;18.86;100.00
52993;BME280;38875;52.216;21.040;2022-08-27T01:15:56;149600.53;;;18.82;100.00
52993;BME280;38875;52.216;21.040;2022-08-27T01:18:28;149610.75;;;18.86;100.00
52993;BME280;38875;52.216;21.040;2022-08-27T01:21:06;149601.81;;;18.82;100.00
52993;BME280;38875;52.216;21.040;2022-08-27T01:23:43;149596.72;;;18.80;100.00
52993;BME280;38875;52.216;21.040;2022-08-27T01:26:13;149589.00;;;18.77;100.00
52993;BME280;38875;52.216;21.040;2022-08-27T01:28:41;149590.28;;;18.78;100.00
52993;BME280;38875;52.216;21.040;2022-08-27T01:31:08;149574.94;;;18.72;100.00
52993;BME280;38875;52.216;21.040;2022-08-27T01:33:35;149571.09;;;18.70;100.00
52993;BME280;38875;52.216;21.040;2022-08-27T01:36:01;149587.72;;;18.77;100.00
52993;BME280;38875;52.216;21.040;2022-08-27T01:38:27;149564.72;;;18.68;100.00
52993;BME280;38875;52.216;21.040;2022-08-27T01:40:52;149548.06;;;18.61;100.00
52993;BME280;38875;52.216;21.040;2022-08-27T01:43:19;149550.66;;;18.62;100.00
52993;BME280;38875;52.216;21.040;2022-08-27T01:45:47;149554.50;;;18.64;100.00
52993;BME280;38875;52.216;21.040;2022-08-27T01:48:15;149545.50;;;18.60;100.00
52993;BME280;38875;52.216;21.040;2022-08-27T01:50:42;149546.78;;;18.61;100.00
52993;BME280;38875;52.216;21.040;2022-08-27T01:53:17;149576.22;;;18.72;100.00
52993;BME280;38875;52.216;21.040;2022-08-27T01:55:45;149566.00;;;18.68;100.00
52993;BME280;38875;52.216;21.040;2022-08-27T01:58:11;149577.50;;;18.73;100.00
52993;BME280;38875;52.216;21.040;2022-08-27T02:00:40;149576.22;;;18.72;100.00
52993;BME280;38875;52.216;21.040;2022-08-27T02:03:09;149562.16;;;18.67;100.00
52993;BME280;38875;52.216;21.040;2022-08-27T02:05:35;149526.34;;;18.52;100.00
52993;BME280;38875;52.216;21.040;2022-08-27T02:08:01;149535.28;;;18.56;100.00
52993;BME280;38875;52.216;21.040;2022-08-27T02:10:30;149527.63;;;18.53;100.00
52993;BME280;38875;52.216;21.040;2022-08-27T02:12:56;149518.63;;;18.49;100.00
52993;BME280;38875;52.216;21.040;2022-08-27T02:15:22;149558.31;;;18.65;100.00
52993;BME280;38875;52.216;21.040;2022-08-27T02:17:49;149585.16;;;18.76;100.00
52993;BME280;38875;52.216;21.040;2022-08-27T02:20:15;149569.81;;;18.70;100.00
52993;BME280;38875;52.216;21.040;2022-08-27T02:22:42;149532.72;;;18.55;100.00
52993;BME280;38875;52.216;21.040;2022-08-27T02:25:10;149513.50;;;18.47;100.00
52993;BME280;38875;52.216;21.040;2022-08-27T02:27:38;149537.84;;;18.57;100.00
52993;BME280;38875;52.216;21.040;2022-08-27T02:30:08;149566.00;;;18.68;100.00
52993;BME280;38875;52.216;21.040;2022-08-27T02:32:34;149539.13;;;18.57;100.00
52993;BME280;38875;52.216;21.040;2022-08-27T02:35:00;149516.06;;;18.48;100.00
52993;BME280;38875;52.216;21.040;2022-08-27T02:37:28;149495.63;;;18.40;100.00
52993;BME280;38875;52.216;21.040;2022-08-27T02:39:54;149473.91;;;18.32;100.00
52993;BME280;38875;52.216;21.040;2022-08-27T02:42:20;149459.88;;;18.26;100.00
52993;BME280;38875;52.216;21.040;2022-08-27T02:44:45;149457.31;;;18.25;100.00
52993;BME280;38875;52.216;21.040;2022-08-27T02:47:12;149457.31;;;18.25;100.00
52993;BME280;38875;52.216;21.040;2022-08-27T02:49:39;149457.31;;;18.25;100.00
52993;BME280;38875;52.216;21.040;2022-08-27T02:52:04;149485.41;;;18.36;100.00
52993;BME280;38875;52.216;21.040;2022-08-27T02:54:30;149514.78;;;18.48;100.00
52993;BME280;38875;52.216;21.040;2022-08-27T02:56:57;149534.00;;;18.55;100.00
52993;BME280;38875;52.216;21.040;2022-08-27T02:59:23;149562.16;;;18.67;100.00
52993;BME280;38875;52.216;21.040;2022-08-27T03:01:49;149567.28;;;18.69;100.00
52993;BME280;38875;52.216;21.040;2022-08-27T03:04:16;149564.72;;;18.68;100.00
52993;BME280;38875;52.216;21.040;2022-08-27T03:06:45;149557.03;;;18.65;100.00
52993;BME280;38875;52.216;21.040;2022-08-27T03:09:12;149559.59;;;18.66;100.00
52993;BME280;38875;52.216;21.040;2022-08-27T03:11:37;149549.34;;;18.62;100.00
52993;BME280;38875;52.216;21.040;2022-08-27T03:14:04;149527.63;;;18.53;100.00
52993;BME280;38875;52.216;21.040;2022-08-27T03:16:36;149504.56;;;18.44;100.00
52993;BME280;38875;52.216;21.040;2022-08-27T03:19:03;149537.84;;;18.57;100.00
52993;BME280;38875;52.216;21.040;2022-08-27T03:21:31;149516.06;;;18.48;100.00
52993;BME280;38875;52.216;21.040;2022-08-27T03:23:56;149504.56;;;18.44;100.00
52993;BME280;38875;52.216;21.040;2022-08-27T03:26:23;149482.84;;;18.35;100.00
52993;BME280;38875;52.216;21.040;2022-08-27T03:28:49;149457.31;;;18.25;100.00
52993;BME280;38875;52.216;21.040;2022-08-27T03:31:18;149467.53;;;18.29;100.00
52993;BME280;38875;52.216;21.040;2022-08-27T03:33:55;149486.69;;;18.37;100.00
52993;BME280;38875;52.216;21.040;2022-08-27T03:36:22;149480.31;;;18.34;100.00
52993;BME280;38875;52.216;21.040;2022-08-27T03:38:48;149480.31;;;18.34;100.00
52993;BME280;38875;52.216;21.040;2022-08-27T03:41:14;149472.63;;;18.31;100.00
52993;BME280;38875;52.216;21.040;2022-08-27T03:43:40;149486.69;;;18.37;100.00
52993;BME280;38875;52.216;21.040;2022-08-27T03:46:07;149458.59;;;18.25;100.00
52993;BME280;38875;52.216;21.040;2022-08-27T03:48:34;149444.50;;;18.20;100.00
52993;BME280;38875;52.216;21.040;2022-08-27T03:51:11;149401.06;;;18.03;100.00
52993;BME280;38875;52.216;21.040;2022-08-27T03:53:40;149385.75;;;17.97;100.00
52993;BME280;38875;52.216;21.040;2022-08-27T03:56:06;149370.38;;;17.90;100.00
52993;BME280;38875;52.216;21.040;2022-08-27T03:58:34;149348.66;;;17.82;100.00
52993;BME280;38875;52.216;21.040;2022-08-27T04:01:00;149356.31;;;17.85;100.00
52993;BME280;38875;52.216;21.040;2022-08-27T04:03:26;149356.31;;;17.85;100.00
52993;BME280;38875;52.216;21.040;2022-08-27T04:05:55;149415.13;;;18.08;100.00
52993;BME280;38875;52.216;21.040;2022-08-27T04:08:22;149485.41;;;18.36;100.00
52993;BME280;38875;52.216;21.040;2022-08-27T04:10:48;149498.19;;;18.41;100.00
52993;BME280;38875;52.216;21.040;2022-08-27T04:13:15;149528.91;;;18.53;100.00
52993;BME280;38875;52.216;21.040;2022-08-27T04:15:43;149528.91;;;18.53;100.00
52993;BME280;38875;52.216;21.040;2022-08-27T04:18:09;149513.50;;;18.47;100.00
52993;BME280;38875;52.216;21.040;2022-08-27T04:20:37;149521.22;;;18.50;100.00
52993;BME280;38875;52.216;21.040;2022-08-27T04:23:04;149521.22;;;18.50;100.00
52993;BME280;38875;52.216;21.040;2022-08-27T04:25:30;149495.63;;;18.40;100.00
52993;BME280;38875;52.216;21.040;2022-08-27T04:27:56;149502.03;;;18.43;100.00
52993;BME280;38875;52.216;21.040;2022-08-27T04:30:22;149530.16;;;18.54;100.00
52993;BME280;38875;52.216;21.040;2022-08-27T04:32:48;149564.72;;;18.68;100.00
52993;BME280;38875;52.216;21.040;2022-08-27T04:35:15;149605.66;;;18.84;100.00
52993;BME280;38875;52.216;21.040;2022-08-27T04:37:41;149647.81;;;19.01;100.00
52993;BME280;38875;52.216;21.040;2022-08-27T04:40:08;149674.72;;;19.11;100.00
52993;BME280;38875;52.216;21.040;2022-08-27T04:42:33;149679.81;;;19.13;100.00
52993;BME280;38875;52.216;21.040;2022-08-27T04:44:59;149669.59;;;19.09;100.00
52993;BME280;38875;52.216;21.040;2022-08-27T04:47:25;149667.03;;;19.08;100.00
52993;BME280;38875;52.216;21.040;2022-08-27T04:49:50;149695.16;;;19.19;100.00
52993;BME280;38875;52.216;21.040;2022-08-27T04:52:16;149697.72;;;19.21;100.00
52993;BME280;38875;52.216;21.040;2022-08-27T04:54:42;149706.66;;;19.24;100.00
52993;BME280;38875;52.216;21.040;2022-08-27T04:57:08;149734.78;;;19.35;100.00
52993;BME280;38875;52.216;21.040;2022-08-27T04:59:34;149792.41;;;19.58;100.00
52993;BME280;38875;52.216;21.040;2022-08-27T05:02:02;149805.19;;;19.63;100.00
52993;BME280;38875;52.216;21.040;2022-08-27T05:04:28;149815.47;;;19.67;100.00
52993;BME280;38875;52.216;21.040;2022-08-27T05:06:56;149838.50;;;19.76;100.00
52993;BME280;38875;52.216;21.040;2022-08-27T05:09:21;149846.16;;;19.79;100.00
52993;BME280;38875;52.216;21.040;2022-08-27T05:11:47;149873.00;;;19.90;100.00
52993;BME280;38875;52.216;21.040;2022-08-27T05:14:14;149874.28;;;19.91;100.00
52993;BME280;38875;52.216;21.040;2022-08-27T05:16:41;149874.28;;;19.91;100.00
52993;BME280;38875;52.216;21.040;2022-08-27T05:19:09;149881.97;;;19.94;100.00
52993;BME280;38875;52.216;21.040;2022-08-27T05:21:44;149929.34;;;20.13;100.00
52993;BME280;38875;52.216;21.040;2022-08-27T05:24:10;149951.09;;;20.21;100.00
52993;BME280;38875;52.216;21.040;2022-08-27T05:26:36;149979.28;;;20.32;100.00
52993;BME280;38875;52.216;21.040;2022-08-27T05:29:03;150012.59;;;20.46;100.00
52993;BME280;38875;52.216;21.040;2022-08-27T05:31:31;150045.91;;;20.59;100.00
52993;BME280;38875;52.216;21.040;2022-08-27T05:33:57;150043.34;;;20.58;100.00
52993;BME280;38875;52.216;21.040;2022-08-27T05:36:26;150076.59;;;20.71;100.00
52993;BME280;38875;52.216;21.040;2022-08-27T05:38:53;150079.16;;;20.72;100.00
52993;BME280;38875;52.216;21.040;2022-08-27T05:41:22;150109.91;;;20.84;100.00
52993;BME280;38875;52.216;21.040;2022-08-27T05:43:50;150130.41;;;20.92;100.00
52993;BME280;38875;52.216;21.040;2022-08-27T05:46:19;150150.88;;;21.00;100.00
52993;BME280;38875;52.216;21.040;2022-08-27T05:48:47;150161.13;;;21.04;100.00
52993;BME280;38875;52.216;21.040;2022-08-27T05:51:16;150172.63;;;21.09;100.00
52993;BME280;38875;52.216;21.040;2022-08-27T05:53:42;150193.16;;;21.17;100.00
52993;BME280;38875;52.216;21.040;2022-08-27T05:56:35;150263.66;;;21.45;100.00
52993;BME280;38875;52.216;21.040;2022-08-27T05:59:02;150317.44;;;21.67;100.00
52993;BME280;38875;52.216;21.040;2022-08-27T06:01:48;150404.59;;;22.01;100.00
52993;BME280;38875;52.216;21.040;2022-08-27T06:04:15;150445.66;;;22.17;100.00
52993;BME280;38875;52.216;21.040;2022-08-27T06:06:42;150470.03;;;22.27;100.00
52993;BME280;38875;52.216;21.040;2022-08-27T06:09:15;150486.69;;;22.34;100.00
52993;BME280;38875;52.216;21.040;2022-08-27T06:11:41;150480.28;;;22.31;100.00
52993;BME280;38875;52.216;21.040;2022-08-27T06:14:08;150453.34;;;22.20;100.00
52993;BME280;38875;52.216;21.040;2022-08-27T06:16:35;150489.25;;;22.35;100.00
52993;BME280;38875;52.216;21.040;2022-08-27T06:19:01;150531.53;;;22.51;100.00
52993;BME280;38875;52.216;21.040;2022-08-27T06:21:27;150573.84;;;22.68;100.00
52993;BME280;38875;52.216;21.040;2022-08-27T06:23:53;150612.34;;;22.83;100.00
52993;BME280;38875;52.216;21.040;2022-08-27T06:26:20;150632.91;;;22.92;100.00
52993;BME280;38875;52.216;21.040;2022-08-27T06:28:47;150635.47;;;22.93;100.00
52993;BME280;38875;52.216;21.040;2022-08-27T06:33:42;150639.31;;;22.94;100.00
52993;BME280;38875;52.216;21.040;2022-08-27T06:36:10;150688.06;;;23.13;100.00
52993;BME280;38875;52.216;21.040;2022-08-27T06:38:37;150731.63;;;23.31;100.00
52993;BME280;38875;52.216;21.040;2022-08-27T06:41:04;150798.41;;;23.57;100.00
52993;BME280;38875;52.216;21.040;2022-08-27T06:43:30;150743.19;;;23.35;100.00
52993;BME280;38875;52.216;21.040;2022-08-27T06:45:56;150781.69;;;23.51;100.00
52993;BME280;38875;52.216;21.040;2022-08-27T06:48:22;150735.50;;;23.32;100.00
52993;BME280;38875;52.216;21.040;2022-08-27T06:50:48;150756.00;;;23.40;100.00
52993;BME280;38875;52.216;21.040;2022-08-27T06:53:14;150827.88;;;23.69;100.00
52993;BME280;38875;52.216;21.040;2022-08-27T06:55:42;150853.59;;;23.79;100.00
52993;BME280;38875;52.216;21.040;2022-08-27T06:58:08;150904.88;;;23.99;100.00
52993;BME280;38875;52.216;21.040;2022-08-27T07:00:34;150996.09;;;24.35;100.00
52993;BME280;38875;52.216;21.040;2022-08-27T07:03:01;151046.13;;;24.55;100.00
52993;BME280;38875;52.216;21.040;2022-08-27T07:05:30;151056.44;;;24.59;100.00
52993;BME280;38875;52.216;21.040;2022-08-27T07:07:56;151115.47;;;24.83;100.00
52993;BME280;38875;52.216;21.040;2022-08-27T07:10:23;151187.44;;;25.11;100.00
52993;BME280;38875;52.216;21.040;2022-08-27T07:12:49;151222.13;;;25.25;100.00
52993;BME280;38875;52.216;21.040;2022-08-27T07:15:15;151255.50;;;25.38;100.00
52993;BME280;38875;52.216;21.040;2022-08-27T07:17:41;151228.56;;;25.27;100.00
52993;BME280;38875;52.216;21.040;2022-08-27T07:20:13;151303.06;;;25.57;98.56
52993;BME280;38875;52.216;21.040;2022-08-27T07:22:40;151355.78;;;25.78;91.84
52993;BME280;38875;52.216;21.040;2022-08-27T07:25:08;151346.81;;;25.74;87.76
52993;BME280;38875;52.216;21.040;2022-08-27T07:27:35;151436.75;;;26.10;84.63
52993;BME280;38875;52.216;21.040;2022-08-27T07:30:02;151678.50;;;27.05;76.69
52993;BME280;38875;52.216;21.040;2022-08-27T07:32:28;152195.94;;;29.10;63.90
52993;BME280;38875;52.216;21.040;2022-08-27T07:34:53;152453.66;;;30.11;57.88
52993;BME280;38875;52.216;21.040;2022-08-27T07:37:19;152592.91;;;30.66;55.25
52993;BME280;38875;52.216;21.040;2022-08-27T07:39:47;152799.19;;;31.48;53.10
52993;BME280;38875;52.216;21.040;2022-08-27T07:42:12;152805.63;;;31.50;52.44
52993;BME280;38875;52.216;21.040;2022-08-27T07:44:57;153431.75;;;33.97;44.29
52993;BME280;38875;52.216;21.040;2022-08-27T07:47:23;153218.63;;;33.13;43.14
52993;BME280;38875;52.216;21.040;2022-08-27T07:49:49;153803.97;;;35.43;39.22
52993;BME280;38875;52.216;21.040;2022-08-27T07:52:15;154096.25;;;36.58;36.80
52993;BME280;38875;52.216;21.040;2022-08-27T07:54:41;153946.22;;;35.99;37.01
52993;BME280;38875;52.216;21.040;2022-08-27T07:57:08;153108.91;;;32.70;42.51
52993;BME280;38875;52.216;21.040;2022-08-27T07:59:34;153240.56;;;33.21;40.21
52993;BME280;38875;52.216;21.040;2022-08-27T08:02:00;153511.81;;;34.28;39.14
52993;BME280;38875;52.216;21.040;2022-08-27T08:04:26;153439.50;;;34.00;38.74
52993;BME280;38875;52.216;21.040;2022-08-27T08:06:53;153219.91;;;33.13;38.42
52993;BME280;38875;52.216;21.040;2022-08-27T08:09:20;152848.19;;;31.67;43.55
52993;BME280;38875;52.216;21.040;2022-08-27T08:11:49;153125.66;;;32.76;41.34
52993;BME280;38875;52.216;21.040;2022-08-27T08:14:16;153173.44;;;32.95;42.20
52993;BME280;38875;52.216;21.040;2022-08-27T08:16:42;152941.09;;;32.03;44.76
52993;BME280;38875;52.216;21.040;2022-08-27T08:19:08;152974.66;;;32.17;42.93
52993;BME280;38875;52.216;21.040;2022-08-27T08:21:34;153154.09;;;32.87;41.31
52993;BME280;38875;52.216;21.040;2022-08-27T08:24:00;153125.66;;;32.76;40.56
52993;BME280;38875;52.216;21.040;2022-08-27T08:26:27;152898.56;;;31.87;41.49
52993;BME280;38875;52.216;21.040;2022-08-27T08:28:53;152974.66;;;32.17;41.43
52993;BME280;38875;52.216;21.040;2022-08-27T08:31:20;153183.81;;;32.99;40.48
52993;BME280;38875;52.216;21.040;2022-08-27T08:33:48;153121.78;;;32.75;41.10
52993;BME280;38875;52.216;21.040;2022-08-27T08:36:16;153174.72;;;32.95;40.00
52993;BME280;38875;52.216;21.040;2022-08-27T08:38:43;153181.22;;;32.98;39.63
52993;BME280;38875;52.216;21.040;2022-08-27T08:41:40;153222.50;;;33.14;39.48
52993;BME280;38875;52.216;21.040;2022-08-27T08:44:16;153108.91;;;32.70;39.69
52993;BME280;38875;52.216;21.040;2022-08-27T08:46:46;153155.38;;;32.88;40.44
52993;BME280;38875;52.216;21.040;2022-08-27T08:51:50;153250.91;;;33.25;39.63
52993;BME280;38875;52.216;21.040;2022-08-27T08:54:20;153252.22;;;33.26;39.16
52993;BME280;38875;52.216;21.040;2022-08-27T08:57:00;153036.63;;;32.41;40.45
52993;BME280;38875;52.216;21.040;2022-08-27T08:59:34;153151.50;;;32.86;39.50
52993;BME280;38875;52.216;21.040;2022-08-27T09:02:05;153296.13;;;33.43;38.61
52993;BME280;38875;52.216;21.040;2022-08-27T09:04:32;153177.34;;;32.97;39.79
52993;BME280;38875;52.216;21.040;2022-08-27T09:07:03;153154.09;;;32.87;40.08
52993;BME280;38875;52.216;21.040;2022-08-27T09:09:36;153269.03;;;33.33;40.45
52993;BME280;38875;52.216;21.040;2022-08-27T09:12:20;153232.81;;;33.18;40.14
52993;BME280;38875;52.216;21.040;2022-08-27T09:15:13;153263.81;;;33.31;41.43
52993;BME280;38875;52.216;21.040;2022-08-27T09:17:37;153188.97;;;33.01;39.71
52993;BME280;38875;52.216;21.040;2022-08-27T09:20:04;153254.78;;;33.27;40.02
52993;BME280;38875;52.216;21.040;2022-08-27T09:25:22;153210.88;;;33.10;40.13
52993;BME280;38875;52.216;21.040;2022-08-27T09:27:51;153371.00;;;33.73;38.84
52993;BME280;38875;52.216;21.040;2022-08-27T09:30:21;153390.34;;;33.80;38.98
52993;BME280;38875;52.216;21.040;2022-08-27T09:32:53;153462.72;;;34.09;37.95
52993;BME280;38875;52.216;21.040;2022-08-27T09:35:21;153343.91;;;33.62;39.90
52993;BME280;38875;52.216;21.040;2022-08-27T09:37:51;153240.56;;;33.21;39.91
52993;BME280;38875;52.216;21.040;2022-08-27T09:40:39;153302.56;;;33.46;39.33
52993;BME280;38875;52.216;21.040;2022-08-27T09:43:24;153395.53;;;33.82;38.67
52993;BME280;38875;52.216;21.040;2022-08-27T09:45:58;153409.81;;;33.88;38.46
52993;BME280;38875;52.216;21.040;2022-08-27T09:48:30;153337.47;;;33.60;39.29
52993;BME280;38875;52.216;21.040;2022-08-27T09:50:59;153429.16;;;33.96;38.17
52993;BME280;38875;52.216;21.040;2022-08-27T09:53:34;153407.22;;;33.87;38.81
52993;BME280;38875;52.216;21.040;2022-08-27T09:56:03;153368.44;;;33.72;39.24
52993;BME280;38875;52.216;21.040;2022-08-27T09:58:47;153400.78;;;33.84;38.43
52993;BME280;38875;52.216;21.040;2022-08-27T10:01:24;153257.38;;;33.28;39.29
52993;BME280;38875;52.216;21.040;2022-08-27T10:04:02;153318.06;;;33.52;39.97
52993;BME280;38875;52.216;21.040;2022-08-27T10:06:30;153411.09;;;33.89;37.69
52993;BME280;38875;52.216;21.040;2022-08-27T10:09:02;153305.16;;;33.47;39.79
52993;BME280;38875;52.216;21.040;2022-08-27T10:11:34;153352.94;;;33.66;39.13
52993;BME280;38875;52.216;21.040;2022-08-27T10:20:00;153476.97;;;34.14;38.71
52993;BME280;38875;52.216;21.040;2022-08-27T10:25:40;153501.50;;;34.24;37.37
52993;BME280;38875;52.216;21.040;2022-08-27T10:30:56;153346.50;;;33.63;35.80
52993;BME280;38875;52.216;21.040;2022-08-27T10:41:42;153343.91;;;33.62;32.27
52993;BME280;38875;52.216;21.040;2022-08-27T10:53:24;153226.38;;;33.16;33.36
52993;BME280;38875;52.216;21.040;2022-08-27T10:55:37;153305.16;;;33.47;34.35
52993;BME280;38875;52.216;21.040;2022-08-27T11:01:36;153496.34;;;34.22;32.04
52993;BME280;38875;52.216;21.040;2022-08-27T11:04:09;153421.44;;;33.93;32.10
52993;BME280;38875;52.216;21.040;2022-08-27T11:06:42;153426.59;;;33.95;32.81
52993;BME280;38875;52.216;21.040;2022-08-27T11:09:15;153405.94;;;33.86;32.86
52993;BME280;38875;52.216;21.040;2022-08-27T11:11:46;153227.66;;;33.16;33.66
52993;BME280;38875;52.216;21.040;2022-08-27T11:14:34;153267.75;;;33.32;33.07
52993;BME280;38875;52.216;21.040;2022-08-27T11:17:08;153133.44;;;32.79;33.92
52993;BME280;38875;52.216;21.040;2022-08-27T11:22:18;153046.97;;;32.45;33.22
52993;BME280;38875;52.216;21.040;2022-08-27T11:24:51;153022.41;;;32.35;34.15
52993;BME280;38875;52.216;21.040;2022-08-27T11:27:21;153005.66;;;32.29;33.82
52993;BME280;38875;52.216;21.040;2022-08-27T11:29:54;152963.06;;;32.12;34.12
52993;BME280;38875;52.216;21.040;2022-08-27T11:35:50;153028.84;;;32.38;32.72
52993;BME280;38875;52.216;21.040;2022-08-27T11:44:12;153046.97;;;32.45;31.55
52993;BME280;38875;52.216;21.040;2022-08-27T11:46:45;153160.53;;;32.90;31.36
52993;BME280;38875;52.216;21.040;2022-08-27T11:49:22;153095.97;;;32.64;30.29
52993;BME280;38875;52.216;21.040;2022-08-27T11:51:56;153080.47;;;32.58;30.37
52993;BME280;38875;52.216;21.040;2022-08-27T11:54:27;152992.72;;;32.24;31.31
52993;BME280;38875;52.216;21.040;2022-08-27T11:56:53;153075.31;;;32.56;30.18
52993;BME280;38875;52.216;21.040;2022-08-27T12:01:50;153195.41;;;33.04;29.88
52993;BME280;38875;52.216;21.040;2022-08-27T12:06:59;153408.53;;;33.88;28.10
52993;BME280;38875;52.216;21.040;2022-08-27T12:09:26;153212.19;;;33.10;29.15
52993;BME280;38875;52.216;21.040;2022-08-27T12:12:03;153235.41;;;33.19;29.67
52993;BME280;38875;52.216;21.040;2022-08-27T12:20:24;153216.03;;;33.12;27.81
52993;BME280;38875;52.216;21.040;2022-08-27T12:26:34;153380.03;;;33.76;26.91
52993;BME280;38875;52.216;21.040;2022-08-27T12:31:45;153354.22;;;33.66;27.40
52993;BME280;38875;52.216;21.040;2022-08-27T12:34:40;153287.09;;;33.40;27.19
52993;BME280;38875;52.216;21.040;2022-08-27T12:37:07;153414.97;;;33.90;27.22
52993;BME280;38875;52.216;21.040;2022-08-27T12:39:36;153395.53;;;33.82;27.52
52993;BME280;38875;52.216;21.040;2022-08-27T12:42:11;153376.16;;;33.75;27.19
52993;BME280;38875;52.216;21.040;2022-08-27T12:44:37;153427.88;;;33.95;27.65
52993;BME280;38875;52.216;21.040;2022-08-27T12:47:07;153467.88;;;34.11;26.27
52993;BME280;38875;52.216;21.040;2022-08-27T12:52:24;153440.78;;;34.00;27.83
52993;BME280;38875;52.216;21.040;2022-08-27T12:55:03;153571.31;;;34.52;27.31
52993;BME280;38875;52.216;21.040;2022-08-27T13:01:15;153665.63;;;34.89;26.67
52993;BME280;38875;52.216;21.040;2022-08-27T13:03:51;153523.44;;;34.33;25.68
52993;BME280;38875;52.216;21.040;2022-08-27T13:06:28;153452.41;;;34.05;26.80
52993;BME280;38875;52.216;21.040;2022-08-27T13:09:00;153256.09;;;33.28;27.21
52993;BME280;38875;52.216;21.040;2022-08-27T13:11:32;153577.75;;;34.54;27.39
52993;BME280;38875;52.216;21.040;2022-08-27T13:14:10;153563.56;;;34.48;28.17
52993;BME280;38875;52.216;21.040;2022-08-27T13:16:43;153619.13;;;34.70;28.33
52993;BME280;38875;52.216;21.040;2022-08-27T13:19:35;153641.06;;;34.79;28.98
52993;BME280;38875;52.216;21.040;2022-08-27T13:22:04;153447.25;;;34.03;29.65
52993;BME280;38875;52.216;21.040;2022-08-27T13:24:45;153659.19;;;34.86;28.57
52993;BME280;38875;52.216;21.040;2022-08-27T13:27:11;153674.69;;;34.92;27.89
52993;BME280;38875;52.216;21.040;2022-08-27T13:29:38;153619.13;;;34.70;27.79
52993;BME280;38875;52.216;21.040;2022-08-27T13:32:05;153796.22;;;35.40;27.29
52993;BME280;38875;52.216;21.040;2022-08-27T13:34:36;153774.22;;;35.31;26.96
52993;BME280;38875;52.216;21.040;2022-08-27T13:37:07;153643.66;;;34.80;27.14
52993;BME280;38875;52.216;21.040;2022-08-27T13:39:45;153664.34;;;34.88;26.37
52993;BME280;38875;52.216;21.040;2022-08-27T13:42:11;153548.06;;;34.42;27.06
52993;BME280;38875;52.216;21.040;2022-08-27T13:44:40;153594.53;;;34.61;26.50
52993;BME280;38875;52.216;21.040;2022-08-27T13:47:09;153509.25;;;34.27;27.03
52993;BME280;38875;52.216;21.040;2022-08-27T13:49:39;153424.00;;;33.94;26.96
52993;BME280;38875;52.216;21.040;2022-08-27T13:54:47;153290.97;;;33.41;27.87
52993;BME280;38875;52.216;21.040;2022-08-27T13:57:27;153504.06;;;34.25;26.65
52993;BME280;38875;52.216;21.040;2022-08-27T14:00:13;153318.06;;;33.52;27.19
52993;BME280;38875;52.216;21.040;2022-08-27T14:02:39;153203.16;;;33.07;27.47
52993;BME280;38875;52.216;21.040;2022-08-27T14:05:09;153129.53;;;32.78;28.49